createdAt,value
2019-04-16T00:00:16.094Z,99.90
2019-04-16T00:01:21.592Z,99.90
2019-04-16T00:02:30.206Z,99.90
2019-04-16T00:03:35.049Z,99.90
2019-04-16T00:04:40.602Z,99.90
2019-04-16T00:05:46.213Z,99.90
2019-04-16T00:07:08.200Z,99.90
2019-04-16T00:08:27.284Z,99.90
2019-04-16T00:09:37.661Z,99.90
2019-04-16T00:10:43.724Z,99.90
2019-04-16T00:11:56.574Z,99.90
2019-04-16T00:13:02.429Z,99.90
2019-04-16T00:14:10.431Z,99.90
2019-04-16T00:15:14.371Z,99.90
2019-04-16T00:16:20.463Z,99.90
2019-04-16T00:17:24.464Z,99.90
2019-04-16T00:18:28.884Z,99.90
2019-04-16T00:19:34.744Z,99.90
2019-04-16T00:20:39.735Z,99.90
2019-04-16T00:21:47.650Z,99.90
2019-04-16T00:22:55.627Z,99.90
2019-04-16T00:24:06.873Z,99.90
2019-04-16T00:25:10.602Z,99.90
2019-04-16T00:26:14.181Z,99.90
2019-04-16T00:27:17.750Z,99.90
2019-04-16T00:28:21.311Z,99.90
2019-04-16T00:29:24.947Z,99.90
2019-04-16T00:30:28.559Z,99.90
2019-04-16T00:31:34.310Z,99.90
2019-04-16T00:32:38.846Z,99.90
2019-04-16T00:33:43.590Z,99.90
2019-04-16T00:34:47.159Z,99.90
2019-04-16T00:35:50.782Z,99.90
2019-04-16T00:36:57.087Z,99.90
2019-04-16T00:38:00.867Z,99.90
2019-04-16T00:39:06.844Z,99.90
2019-04-16T00:40:13.046Z,99.90
2019-04-16T00:41:19.877Z,99.90
2019-04-16T00:42:23.882Z,99.90
2019-04-16T00:43:28.419Z,99.90
2019-04-16T00:44:33.060Z,99.90
2019-04-16T00:45:37.983Z,99.90
2019-04-16T00:46:50.606Z,99.90
2019-04-16T00:47:54.515Z,99.90
2019-04-16T00:48:58.061Z,99.90
2019-04-16T00:50:02.198Z,99.90
2019-04-16T00:51:06.466Z,99.90
2019-04-16T00:52:10.491Z,99.90
2019-04-16T00:53:16.045Z,99.90
2019-04-16T00:54:20.111Z,99.90
2019-04-16T00:55:28.023Z,99.90
2019-04-16T00:56:33.632Z,99.90
2019-04-16T00:57:38.204Z,99.90
2019-04-16T00:58:42.507Z,99.90
2019-04-16T00:59:46.084Z,99.90
2019-04-16T01:00:53.064Z,99.90
2019-04-16T01:01:57.069Z,99.90
2019-04-16T01:03:01.029Z,99.90
2019-04-16T01:04:05.969Z,99.90
2019-04-16T01:05:10.313Z,99.90
2019-04-16T01:06:14.266Z,99.90
2019-04-16T01:07:18.640Z,99.90
2019-04-16T01:08:22.258Z,99.90
2019-04-16T01:09:25.852Z,99.90
2019-04-16T01:10:29.427Z,99.90
2019-04-16T01:11:32.999Z,99.90
2019-04-16T01:12:36.563Z,99.90
2019-04-16T01:13:40.395Z,99.90
2019-04-16T01:14:43.960Z,99.90
2019-04-16T01:15:47.572Z,99.90
2019-04-16T01:16:51.130Z,99.90
2019-04-16T01:17:54.700Z,99.90
2019-04-16T01:18:58.271Z,99.90
2019-04-16T01:20:01.846Z,99.90
2019-04-16T01:21:05.519Z,99.90
2019-04-16T01:22:09.095Z,99.90
2019-04-16T01:23:17.444Z,99.90
2019-04-16T01:24:20.224Z,99.90
2019-04-16T01:25:24.041Z,99.90
2019-04-16T01:26:28.053Z,99.90
2019-04-16T01:27:38.527Z,99.90
2019-04-16T01:29:03.695Z,99.90
2019-04-16T01:30:09.434Z,99.90
2019-04-16T01:31:26.432Z,99.90
2019-04-16T01:32:33.181Z,99.90
2019-04-16T01:33:38.750Z,99.90
2019-04-16T01:34:48.448Z,99.90
2019-04-16T01:35:56.848Z,99.90
2019-04-16T01:37:17.491Z,99.90
2019-04-16T01:38:38.537Z,99.90
2019-04-16T01:39:50.191Z,99.90
2019-04-16T01:40:55.802Z,99.90
2019-04-16T01:42:03.297Z,99.90
2019-04-16T01:43:07.216Z,99.90
2019-04-16T01:44:11.260Z,99.90
2019-04-16T01:45:14.970Z,99.90
2019-04-16T01:46:20.174Z,99.90
2019-04-16T01:47:25.368Z,99.90
2019-04-16T01:48:29.653Z,99.90
2019-04-16T01:49:35.680Z,99.90
2019-04-16T01:50:43.528Z,99.90
2019-04-16T01:51:47.415Z,99.90
2019-04-16T01:52:52.255Z,99.90
2019-04-16T01:53:57.767Z,99.90
2019-04-16T01:55:02.634Z,99.90
2019-04-16T01:56:06.832Z,99.90
2019-04-16T01:57:11.122Z,99.90
2019-04-16T01:58:14.670Z,99.90
2019-04-16T01:59:18.247Z,99.90
2019-04-16T02:00:21.815Z,99.90
2019-04-16T02:01:25.378Z,99.90
2019-04-16T02:02:28.988Z,99.90
2019-04-16T02:03:32.557Z,99.90
2019-04-16T02:04:36.190Z,99.90
2019-04-16T02:05:39.770Z,99.90
2019-04-16T02:06:43.311Z,99.90
2019-04-16T02:07:46.923Z,99.90
2019-04-16T02:08:50.488Z,99.90
2019-04-16T02:09:54.063Z,99.90
2019-04-16T02:10:57.671Z,99.90
2019-04-16T02:12:01.238Z,99.90
2019-04-16T02:13:04.879Z,99.90
2019-04-16T02:14:08.904Z,99.90
2019-04-16T02:15:12.576Z,99.90
2019-04-16T02:16:17.841Z,99.90
2019-04-16T02:17:26.662Z,99.90
2019-04-16T02:18:29.643Z,99.90
2019-04-16T02:19:33.589Z,99.90
2019-04-16T02:20:39.319Z,99.90
2019-04-16T02:21:43.209Z,99.90
2019-04-16T02:22:47.087Z,99.90
2019-04-16T02:23:51.062Z,99.90
2019-04-16T02:24:55.221Z,99.90
2019-04-16T02:25:59.117Z,99.90
2019-04-16T02:27:03.034Z,99.90
2019-04-16T02:28:06.879Z,99.90
2019-04-16T02:29:12.080Z,99.90
2019-04-16T02:30:16.067Z,99.90
2019-04-16T02:31:21.607Z,99.90
2019-04-16T02:32:25.996Z,99.90
2019-04-16T02:33:30.015Z,99.90
2019-04-16T02:34:39.543Z,99.90
2019-04-16T02:35:43.148Z,99.90
2019-04-16T02:36:47.724Z,99.90
2019-04-16T02:37:53.743Z,99.90
2019-04-16T02:39:00.387Z,99.90
2019-04-16T02:40:05.975Z,99.90
2019-04-16T02:41:14.128Z,99.90
2019-04-16T02:42:18.683Z,99.90
2019-04-16T02:43:22.813Z,99.90
2019-04-16T02:44:28.095Z,99.90
2019-04-16T02:45:31.756Z,99.90
2019-04-16T02:46:35.390Z,99.90
2019-04-16T02:47:41.776Z,99.90
2019-04-16T02:48:50.004Z,99.90
2019-04-16T02:49:49.400Z,99.90
2019-04-16T02:51:05.347Z,99.90
2019-04-16T02:52:14.765Z,99.90
2019-04-16T02:53:29.118Z,99.90
2019-04-16T02:54:34.577Z,99.90
2019-04-16T02:55:48.792Z,99.90
2019-04-16T02:56:59.526Z,99.90
2019-04-16T02:58:10.807Z,99.90
2019-04-16T02:59:17.401Z,99.90
2019-04-16T03:00:27.950Z,99.90
2019-04-16T03:01:36.752Z,99.90
2019-04-16T03:02:42.277Z,99.90
2019-04-16T03:03:55.394Z,99.90
2019-04-16T03:05:15.594Z,99.90
2019-04-16T03:06:19.906Z,99.90
2019-04-16T03:07:23.823Z,99.90
2019-04-16T03:08:28.242Z,99.90
2019-04-16T03:09:33.542Z,99.90
2019-04-16T03:10:37.689Z,99.90
2019-04-16T03:11:41.631Z,99.90
2019-04-16T03:12:51.889Z,99.90
2019-04-16T03:13:58.392Z,99.90
2019-04-16T03:15:02.865Z,99.90
2019-04-16T03:16:25.775Z,99.90
2019-04-16T03:17:33.800Z,99.90
2019-04-16T03:18:38.971Z,99.90
2019-04-16T03:19:44.531Z,99.90
2019-04-16T03:20:52.488Z,99.90
2019-04-16T03:21:55.914Z,99.90
2019-04-16T03:23:05.145Z,99.90
2019-04-16T03:24:09.092Z,99.90
2019-04-16T03:25:14.390Z,99.90
2019-04-16T03:26:18.823Z,99.90
2019-04-16T03:27:24.574Z,99.90
2019-04-16T03:28:28.609Z,99.90
2019-04-16T03:29:33.690Z,99.90
2019-04-16T03:30:42.218Z,99.90
2019-04-16T03:31:44.926Z,99.90
2019-04-16T03:32:50.119Z,99.90
2019-04-16T03:33:53.664Z,99.90
2019-04-16T03:34:57.295Z,99.90
2019-04-16T03:36:00.899Z,99.90
2019-04-16T03:37:04.462Z,99.90
2019-04-16T03:38:08.078Z,99.90
2019-04-16T03:39:13.199Z,99.90
2019-04-16T03:40:18.659Z,99.90
2019-04-16T03:41:25.049Z,99.90
2019-04-16T03:42:28.135Z,99.90
2019-04-16T03:43:32.836Z,99.90
2019-04-16T03:44:37.448Z,99.90
2019-04-16T03:45:41.187Z,99.90
2019-04-16T03:46:46.884Z,99.90
2019-04-16T03:47:54.210Z,99.90
2019-04-16T03:48:58.082Z,99.90
2019-04-16T03:50:05.806Z,99.90
2019-04-16T03:51:09.840Z,99.90
2019-04-16T03:52:16.270Z,99.90
2019-04-16T03:53:20.627Z,99.90
2019-04-16T03:54:24.871Z,99.90
2019-04-16T03:55:39.945Z,99.90
2019-04-16T03:56:43.577Z,99.90
2019-04-16T03:57:47.547Z,99.90
2019-04-16T03:58:51.545Z,99.90
2019-04-16T03:59:55.396Z,99.90
2019-04-16T04:00:59.295Z,99.90
2019-04-16T04:02:06.182Z,99.90
2019-04-16T04:03:10.299Z,99.90
2019-04-16T04:04:16.243Z,99.90
2019-04-16T04:05:20.209Z,99.90
2019-04-16T04:06:23.856Z,99.90
2019-04-16T04:07:27.427Z,99.90
2019-04-16T04:08:31.027Z,99.90
2019-04-16T04:09:34.599Z,99.90
2019-04-16T04:10:38.179Z,99.90
2019-04-16T04:11:41.996Z,99.90
2019-04-16T04:12:46.602Z,99.90
2019-04-16T04:13:50.968Z,99.90
2019-04-16T04:14:55.166Z,99.90
2019-04-16T04:16:01.634Z,99.90
2019-04-16T04:17:06.573Z,99.90
2019-04-16T04:18:11.655Z,99.90
2019-04-16T04:19:15.976Z,99.90
2019-04-16T04:20:19.686Z,99.90
2019-04-16T04:21:23.284Z,99.90
2019-04-16T04:22:26.851Z,99.90
2019-04-16T04:23:30.491Z,99.90
2019-04-16T04:24:34.358Z,99.90
2019-04-16T04:25:37.919Z,99.90
2019-04-16T04:26:42.355Z,99.90
2019-04-16T04:27:46.693Z,99.90
2019-04-16T04:28:51.587Z,99.90
2019-04-16T04:29:57.275Z,99.90
2019-04-16T04:31:01.979Z,99.90
2019-04-16T04:32:05.566Z,99.90
2019-04-16T04:33:10.316Z,99.90
2019-04-16T04:34:16.802Z,99.90
2019-04-16T04:35:22.045Z,99.90
2019-04-16T04:36:26.966Z,99.90
2019-04-16T04:37:31.242Z,99.90
2019-04-16T04:38:37.402Z,99.90
2019-04-16T04:39:43.920Z,99.90
2019-04-16T04:40:50.477Z,99.90
2019-04-16T04:41:52.700Z,99.90
2019-04-16T04:42:57.781Z,99.90
2019-04-16T04:44:04.460Z,99.90
2019-04-16T04:45:08.934Z,99.90
2019-04-16T04:46:14.561Z,99.90
2019-04-16T04:47:19.287Z,99.90
2019-04-16T04:48:24.310Z,99.90
2019-04-16T04:49:30.394Z,99.90
2019-04-16T04:50:35.272Z,99.90
2019-04-16T04:51:42.537Z,99.90
2019-04-16T04:52:46.143Z,99.90
2019-04-16T04:53:50.254Z,99.90
2019-04-16T04:54:54.824Z,99.90
2019-04-16T04:55:58.412Z,99.90
2019-04-16T04:57:02.022Z,99.90
2019-04-16T04:58:05.639Z,99.90
2019-04-16T04:59:09.207Z,99.90
2019-04-16T05:00:13.123Z,99.90
2019-04-16T05:01:16.696Z,99.90
2019-04-16T05:02:20.299Z,99.90
2019-04-16T05:03:40.763Z,99.90
2019-04-16T05:05:00.710Z,99.90
2019-04-16T05:06:09.004Z,99.90
2019-04-16T05:07:14.252Z,99.90
2019-04-16T05:08:17.865Z,99.90
2019-04-16T05:09:21.438Z,99.90
2019-04-16T05:10:25.006Z,99.90
2019-04-16T05:11:28.571Z,99.90
2019-04-16T05:12:34.904Z,99.90
2019-04-16T05:13:38.479Z,99.90
2019-04-16T05:14:57.579Z,99.90
2019-04-16T05:15:58.338Z,99.90
2019-04-16T05:17:03.650Z,99.90
2019-04-16T05:18:09.707Z,99.90
2019-04-16T05:19:14.885Z,99.90
2019-04-16T05:20:18.019Z,99.90
2019-04-16T05:21:21.568Z,99.90
2019-04-16T05:22:25.170Z,99.90
2019-04-16T05:23:28.772Z,99.90
2019-04-16T05:24:32.375Z,99.90
2019-04-16T05:25:35.984Z,99.90
2019-04-16T05:26:39.547Z,99.90
2019-04-16T05:27:43.128Z,99.90
2019-04-16T05:28:46.702Z,99.90
2019-04-16T05:29:50.272Z,99.90
2019-04-16T05:30:53.883Z,99.90
2019-04-16T05:31:58.238Z,99.90
2019-04-16T05:33:05.537Z,99.90
2019-04-16T05:34:07.747Z,99.90
2019-04-16T05:35:11.314Z,99.90
2019-04-16T05:36:15.426Z,99.90
2019-04-16T05:37:20.219Z,99.90
2019-04-16T05:38:24.840Z,99.90
2019-04-16T05:39:28.719Z,99.90
2019-04-16T05:40:35.099Z,99.90
2019-04-16T05:41:38.335Z,99.90
2019-04-16T05:42:41.916Z,99.90
2019-04-16T05:43:45.476Z,99.90
2019-04-16T05:44:49.079Z,99.90
2019-04-16T05:45:52.648Z,99.90
2019-04-16T05:46:56.215Z,99.90
2019-04-16T05:47:59.779Z,99.90
2019-04-16T05:49:03.362Z,99.90
2019-04-16T05:50:07.490Z,99.90
2019-04-16T05:51:11.159Z,99.90
2019-04-16T05:52:14.734Z,99.90
2019-04-16T05:53:18.334Z,99.90
2019-04-16T05:54:29.609Z,99.90
2019-04-16T05:55:37.564Z,99.90
2019-04-16T05:56:42.827Z,99.90
2019-04-16T05:57:48.030Z,99.90
2019-04-16T05:58:51.600Z,99.90
2019-04-16T05:59:55.168Z,99.90
2019-04-16T06:01:00.406Z,99.90
2019-04-16T06:02:18.280Z,99.90
2019-04-16T06:03:21.862Z,99.90
2019-04-16T06:04:25.710Z,99.90
2019-04-16T06:05:29.630Z,99.90
2019-04-16T06:06:33.227Z,99.90
2019-04-16T06:07:37.975Z,99.90
2019-04-16T06:08:42.030Z,99.90
2019-04-16T06:09:45.596Z,99.90
2019-04-16T06:10:51.080Z,99.90
2019-04-16T06:11:54.427Z,99.90
2019-04-16T06:13:15.941Z,99.90
2019-04-16T06:14:25.522Z,99.90
2019-04-16T06:15:30.742Z,99.90
2019-04-16T06:16:47.983Z,99.90
2019-04-16T06:18:09.434Z,99.90
2019-04-16T06:19:20.410Z,99.90
2019-04-16T06:20:25.619Z,99.90
2019-04-16T06:21:33.827Z,99.90
2019-04-16T06:22:39.066Z,99.90
2019-04-16T06:24:03.323Z,99.90
2019-04-16T06:25:24.712Z,99.90
2019-04-16T06:26:29.966Z,99.90
2019-04-16T06:27:41.048Z,99.90
2019-04-16T06:29:02.574Z,99.90
2019-04-16T06:30:24.616Z,99.90
2019-04-16T06:31:39.983Z,99.90
2019-04-16T06:32:51.038Z,99.90
2019-04-16T06:33:56.251Z,99.90
2019-04-16T06:35:18.081Z,99.90
2019-04-16T06:36:23.387Z,99.90
2019-04-16T06:37:28.600Z,99.90
2019-04-16T06:38:39.748Z,99.90
2019-04-16T06:40:00.967Z,99.90
2019-04-16T06:41:12.670Z,99.90
2019-04-16T06:42:22.470Z,99.90
2019-04-16T06:43:36.161Z,99.90
2019-04-16T06:44:50.406Z,99.90
2019-04-16T06:46:11.759Z,99.90
2019-04-16T06:47:25.558Z,99.90
2019-04-16T06:48:30.806Z,99.90
2019-04-16T06:49:36.024Z,99.90
2019-04-16T06:50:44.192Z,99.90
2019-04-16T06:51:59.735Z,99.90
2019-04-16T06:53:23.552Z,99.90
2019-04-16T06:54:45.620Z,99.90
2019-04-16T06:55:50.907Z,99.90
2019-04-16T06:57:12.897Z,99.90
2019-04-16T06:58:20.979Z,99.90
2019-04-16T06:59:35.576Z,99.90
2019-04-16T07:00:40.745Z,99.90
2019-04-16T07:02:04.751Z,99.90
2019-04-16T07:03:14.739Z,99.90
2019-04-16T07:04:22.723Z,99.90
2019-04-16T07:05:36.830Z,99.90
2019-04-16T07:06:44.815Z,99.90
2019-04-16T07:08:05.165Z,99.90
2019-04-16T07:09:23.393Z,99.90
2019-04-16T07:10:28.645Z,99.90
2019-04-16T07:11:32.911Z,99.90
2019-04-16T07:12:38.595Z,99.90
2019-04-16T07:13:42.356Z,99.90
2019-04-16T07:14:48.470Z,99.90
2019-04-16T07:15:56.410Z,99.90
2019-04-16T07:16:59.780Z,99.90
2019-04-16T07:18:02.483Z,99.90
2019-04-16T07:19:11.173Z,99.90
2019-04-16T07:20:14.142Z,99.90
2019-04-16T07:21:18.392Z,99.90
2019-04-16T07:22:22.235Z,99.90
2019-04-16T07:23:26.153Z,99.90
2019-04-16T07:24:31.447Z,99.90
2019-04-16T07:25:39.784Z,99.90
2019-04-16T07:26:43.483Z,99.90
2019-04-16T07:27:52.520Z,99.90
2019-04-16T07:29:00.093Z,99.90
2019-04-16T07:30:08.815Z,99.90
2019-04-16T07:32:30.288Z,99.90
2019-04-16T07:33:52.055Z,99.90
2019-04-16T07:34:34.848Z,99.90
2019-04-16T07:34:57.627Z,99.90
2019-04-16T07:36:08.705Z,99.90
2019-04-16T07:37:20.030Z,99.90
2019-04-16T07:38:25.265Z,99.90
2019-04-16T07:39:39.539Z,99.90
2019-04-16T07:40:56.655Z,99.90
2019-04-16T07:42:10.619Z,99.90
2019-04-16T07:43:31.027Z,99.90
2019-04-16T07:44:40.975Z,99.90
2019-04-16T07:45:46.188Z,99.90
2019-04-16T07:46:51.447Z,99.90
2019-04-16T07:47:56.655Z,99.90
2019-04-16T07:49:04.734Z,99.90
2019-04-16T07:50:12.975Z,99.90
2019-04-16T07:51:30.110Z,99.90
2019-04-16T07:52:41.924Z,99.90
2019-04-16T07:53:50.488Z,99.90
2019-04-16T07:55:07.682Z,99.90
2019-04-16T07:56:15.527Z,99.90
2019-04-16T07:57:19.095Z,99.90
2019-04-16T07:58:22.707Z,99.90
2019-04-16T07:59:26.290Z,99.90
2019-04-16T08:00:29.848Z,99.90
2019-04-16T08:01:33.484Z,99.90
2019-04-16T08:02:37.123Z,99.90
2019-04-16T08:03:40.735Z,99.90
2019-04-16T08:04:44.303Z,99.90
2019-04-16T08:05:47.882Z,99.90
2019-04-16T08:06:51.459Z,99.90
2019-04-16T08:07:55.038Z,99.90
2019-04-16T08:08:58.654Z,99.90
2019-04-16T08:10:03.302Z,99.90
2019-04-16T08:11:07.072Z,99.90
2019-04-16T08:12:28.789Z,99.90
2019-04-16T08:13:17.525Z,99.90
2019-04-16T08:14:21.119Z,99.90
2019-04-16T08:15:24.758Z,99.90
2019-04-16T08:16:28.335Z,99.90
2019-04-16T08:17:31.960Z,99.90
2019-04-16T08:18:37.175Z,99.90
2019-04-16T08:19:40.740Z,99.90
2019-04-16T08:20:44.319Z,99.90
2019-04-16T08:21:47.891Z,99.90
2019-04-16T08:22:53.173Z,99.90
2019-04-16T08:24:04.113Z,99.90
2019-04-16T08:25:07.739Z,99.90
2019-04-16T08:26:13.531Z,99.90
2019-04-16T08:27:19.169Z,99.90
2019-04-16T08:28:21.795Z,99.90
2019-04-16T08:29:26.634Z,99.90
2019-04-16T08:30:34.656Z,99.90
2019-04-16T08:31:37.244Z,99.90
2019-04-16T08:32:40.819Z,99.90
2019-04-16T08:33:44.394Z,99.90
2019-04-16T08:34:48.013Z,99.90
2019-04-16T08:35:51.574Z,99.90
2019-04-16T08:36:55.151Z,99.90
2019-04-16T08:37:58.966Z,99.90
2019-04-16T08:39:05.892Z,99.90
2019-04-16T08:40:12.185Z,99.90
2019-04-16T08:41:19.969Z,99.90
2019-04-16T08:42:24.374Z,99.90
2019-04-16T08:43:26.630Z,99.90
2019-04-16T08:44:32.912Z,99.90
2019-04-16T08:45:39.172Z,99.90
2019-04-16T08:46:41.277Z,99.90
2019-04-16T08:47:45.999Z,99.90
2019-04-16T08:48:53.786Z,99.90
2019-04-16T08:49:55.017Z,99.90
2019-04-16T08:50:59.194Z,99.90
2019-04-16T08:52:02.995Z,99.90
2019-04-16T08:53:06.575Z,99.90
2019-04-16T08:54:10.143Z,99.90
2019-04-16T08:55:13.723Z,99.90
2019-04-16T08:56:17.336Z,99.90
2019-04-16T08:57:20.907Z,99.90
2019-04-16T08:58:24.484Z,99.90
2019-04-16T08:59:28.099Z,99.90
2019-04-16T09:00:32.211Z,99.90
2019-04-16T09:01:35.857Z,99.90
2019-04-16T09:02:39.501Z,99.90
2019-04-16T09:03:43.071Z,99.90
2019-04-16T09:04:46.685Z,99.90
2019-04-16T09:05:50.260Z,99.70
2019-04-16T09:06:53.840Z,99.70
2019-04-16T09:08:11.670Z,98.20
2019-04-16T09:09:25.598Z,98.00
2019-04-16T09:10:30.897Z,98.50
2019-04-16T09:11:36.362Z,99.00
2019-04-16T09:12:44.919Z,99.20
2019-04-16T09:13:48.119Z,99.70
2019-04-16T09:14:55.956Z,99.10
2019-04-16T09:15:57.351Z,99.90
2019-04-16T09:17:05.259Z,99.90
2019-04-16T09:18:19.283Z,99.90
2019-04-16T09:19:23.423Z,99.20
2019-04-16T09:20:28.637Z,98.90
2019-04-16T09:21:32.203Z,97.60
2019-04-16T09:22:48.128Z,98.20
2019-04-16T09:23:42.743Z,98.00
2019-04-16T09:24:50.692Z,96.50
2019-04-16T09:26:12.406Z,96.40
2019-04-16T09:27:13.304Z,96.40
2019-04-16T09:28:25.643Z,95.40
2019-04-16T09:29:25.251Z,95.00
2019-04-16T09:30:46.623Z,95.40
2019-04-16T09:32:07.997Z,95.80
2019-04-16T09:33:13.211Z,94.70
2019-04-16T09:34:35.694Z,94.40
2019-04-16T09:35:56.891Z,95.50
2019-04-16T09:37:08.168Z,94.30
2019-04-16T09:38:31.357Z,93.60
2019-04-16T09:39:39.218Z,95.10
2019-04-16T09:40:49.122Z,94.00
2019-04-16T09:41:52.631Z,94.40
2019-04-16T09:42:56.399Z,94.20
2019-04-16T09:44:02.552Z,94.10
2019-04-16T09:45:07.143Z,93.50
2019-04-16T09:46:17.619Z,92.60
2019-04-16T09:47:15.927Z,91.30
2019-04-16T09:48:19.499Z,91.70
2019-04-16T09:49:23.205Z,91.20
2019-04-16T09:50:26.799Z,89.80
2019-04-16T09:51:30.391Z,90.90
2019-04-16T09:52:33.964Z,91.20
2019-04-16T09:53:40.199Z,92.50
2019-04-16T09:54:44.503Z,90.10
2019-04-16T09:55:50.636Z,88.50
2019-04-16T09:56:53.346Z,87.00
2019-04-16T09:57:58.562Z,87.60
2019-04-16T09:59:04.316Z,87.30
2019-04-16T10:00:09.871Z,90.30
2019-04-16T10:01:13.652Z,88.60
2019-04-16T10:02:21.880Z,85.20
2019-04-16T10:03:32.579Z,88.30
2019-04-16T10:04:36.324Z,84.80
2019-04-16T10:05:39.890Z,87.30
2019-04-16T10:06:43.580Z,86.00
2019-04-16T10:07:47.190Z,84.10
2019-04-16T10:08:50.744Z,83.50
2019-04-16T10:09:55.220Z,83.60
2019-04-16T10:11:02.678Z,86.20
2019-04-16T10:12:04.967Z,82.60
2019-04-16T10:13:09.876Z,83.30
2019-04-16T10:14:13.581Z,82.30
2019-04-16T10:15:17.770Z,82.10
2019-04-16T10:16:23.343Z,82.70
2019-04-16T10:17:27.109Z,80.20
2019-04-16T10:18:34.812Z,80.50
2019-04-16T10:19:36.040Z,79.40
2019-04-16T10:20:40.414Z,78.90
2019-04-16T10:21:44.135Z,78.60
2019-04-16T10:22:47.708Z,78.10
2019-04-16T10:24:07.423Z,79.00
2019-04-16T10:25:14.796Z,77.10
2019-04-16T10:26:18.351Z,75.90
2019-04-16T10:27:23.606Z,77.00
2019-04-16T10:28:28.827Z,76.10
2019-04-16T10:29:32.400Z,77.30
2019-04-16T10:30:37.809Z,79.10
2019-04-16T10:31:41.344Z,76.80
2019-04-16T10:32:44.982Z,76.30
2019-04-16T10:33:48.571Z,76.20
2019-04-16T10:34:52.152Z,75.00
2019-04-16T10:35:57.466Z,75.00
2019-04-16T10:37:00.946Z,75.00
2019-04-16T10:38:06.165Z,75.20
2019-04-16T10:39:11.504Z,73.90
2019-04-16T10:40:22.663Z,72.50
2019-04-16T10:41:27.854Z,73.70
2019-04-16T10:42:35.758Z,73.50
2019-04-16T10:43:44.842Z,71.70
2019-04-16T10:44:52.978Z,71.50
2019-04-16T10:45:58.190Z,71.20
2019-04-16T10:47:12.526Z,74.80
2019-04-16T10:48:33.938Z,72.60
2019-04-16T10:49:44.807Z,73.90
2019-04-16T10:50:53.266Z,71.70
2019-04-16T10:52:13.750Z,73.10
2019-04-16T10:53:21.651Z,72.60
2019-04-16T10:54:26.885Z,72.30
2019-04-16T10:55:32.117Z,72.80
2019-04-16T10:56:56.850Z,72.40
2019-04-16T10:58:09.202Z,71.80
2019-04-16T10:59:30.471Z,72.90
2019-04-16T11:00:38.705Z,72.80
2019-04-16T11:01:43.906Z,72.50
2019-04-16T11:02:52.032Z,72.80
2019-04-16T11:03:57.272Z,72.70
2019-04-16T11:05:19.195Z,73.60
2019-04-16T11:06:25.382Z,69.70
2019-04-16T11:07:30.742Z,72.10
2019-04-16T11:08:34.294Z,72.20
2019-04-16T11:09:37.891Z,73.40
2019-04-16T11:10:41.844Z,72.10
2019-04-16T11:11:45.569Z,72.40
2019-04-16T11:12:49.190Z,72.70
2019-04-16T11:14:00.089Z,71.90
2019-04-16T11:14:58.696Z,72.70
2019-04-16T11:16:03.891Z,72.10
2019-04-16T11:17:07.520Z,71.00
2019-04-16T11:18:11.391Z,71.60
2019-04-16T11:19:15.255Z,72.20
2019-04-16T11:20:19.078Z,72.70
2019-04-16T11:21:22.657Z,72.10
2019-04-16T11:22:26.304Z,70.00
2019-04-16T11:23:30.031Z,70.40
2019-04-16T11:24:33.627Z,73.40
2019-04-16T11:25:37.199Z,70.50
2019-04-16T11:26:44.297Z,74.30
2019-04-16T11:27:46.560Z,71.70
2019-04-16T11:28:50.168Z,72.30
2019-04-16T11:29:53.785Z,72.60
2019-04-16T11:30:59.077Z,72.20
2019-04-16T11:32:02.987Z,70.80
2019-04-16T11:33:06.800Z,69.90
2019-04-16T11:34:12.071Z,69.90
2019-04-16T11:35:17.323Z,67.30
2019-04-16T11:36:21.226Z,68.70
2019-04-16T11:37:24.965Z,69.30
2019-04-16T11:38:28.537Z,69.10
2019-04-16T11:39:32.162Z,70.00
2019-04-16T11:40:35.804Z,69.50
2019-04-16T11:41:39.424Z,69.60
2019-04-16T11:42:43.012Z,69.30
2019-04-16T11:43:46.610Z,69.50
2019-04-16T11:44:50.444Z,70.50
2019-04-16T11:45:54.150Z,75.00
2019-04-16T11:46:57.803Z,72.20
2019-04-16T11:48:01.386Z,73.00
2019-04-16T11:49:05.103Z,71.80
2019-04-16T11:50:09.119Z,68.70
2019-04-16T11:51:12.726Z,67.80
2019-04-16T11:52:16.316Z,68.90
2019-04-16T11:53:19.994Z,68.30
2019-04-16T11:54:23.571Z,66.20
2019-04-16T11:55:27.227Z,68.40
2019-04-16T11:56:30.793Z,67.50
2019-04-16T11:57:34.388Z,66.70
2019-04-16T11:59:48.286Z,68.90
2019-04-16T12:00:53.470Z,67.50
2019-04-16T12:02:07.918Z,66.70
2019-04-16T12:03:27.978Z,67.30
2019-04-16T12:04:45.235Z,66.40
2019-04-16T12:05:50.453Z,66.80
2019-04-16T12:07:11.993Z,67.30
2019-04-16T12:08:23.155Z,67.30
2019-04-16T12:09:31.048Z,66.00
2019-04-16T12:10:39.115Z,67.00
2019-04-16T12:11:50.426Z,65.30
2019-04-16T12:12:58.422Z,65.40
2019-04-16T12:14:07.497Z,63.00
2019-04-16T12:15:10.620Z,62.80
2019-04-16T12:16:25.432Z,63.60
2019-04-16T12:17:30.893Z,63.10
2019-04-16T12:18:36.117Z,61.10
2019-04-16T12:19:57.621Z,61.60
2019-04-16T12:21:05.999Z,61.70
2019-04-16T12:22:16.968Z,62.80
2019-04-16T12:23:28.084Z,64.10
2019-04-16T12:24:49.380Z,57.70
2019-04-16T12:26:10.873Z,58.50
2019-04-16T12:27:16.080Z,57.90
2019-04-16T12:28:42.188Z,56.70
2019-04-16T12:30:01.305Z,56.20
2019-04-16T12:31:08.927Z,57.60
2019-04-16T12:32:29.475Z,56.90
2019-04-16T12:33:37.457Z,56.10
2019-04-16T12:34:42.722Z,55.70
2019-04-16T12:35:54.006Z,55.20
2019-04-16T12:37:15.530Z,55.30
2019-04-16T12:38:23.383Z,54.10
2019-04-16T12:39:45.099Z,54.90
2019-04-16T12:41:02.482Z,54.20
2019-04-16T12:42:07.900Z,53.70
2019-04-16T12:43:15.972Z,53.90
2019-04-16T12:44:45.304Z,53.80
2019-04-16T12:45:46.196Z,55.20
2019-04-16T12:47:07.942Z,54.70
2019-04-16T12:48:29.351Z,54.80
2019-04-16T12:49:50.067Z,53.20
2019-04-16T12:50:58.132Z,54.30
2019-04-16T12:52:11.946Z,53.40
2019-04-16T12:53:21.656Z,52.30
2019-04-16T12:54:43.483Z,50.90
2019-04-16T12:56:07.498Z,52.40
2019-04-16T12:57:21.448Z,51.40
2019-04-16T12:58:29.359Z,51.20
2019-04-16T12:59:48.779Z,50.10
2019-04-16T13:00:53.770Z,53.00
2019-04-16T13:02:15.215Z,51.30
2019-04-16T13:03:20.439Z,51.70
2019-04-16T13:04:28.329Z,49.70
2019-04-16T13:05:39.744Z,52.50
2019-04-16T13:07:00.024Z,52.90
2019-04-16T13:08:17.206Z,51.80
2019-04-16T13:09:25.328Z,51.10
2019-04-16T13:10:30.588Z,50.10
2019-04-16T13:11:38.563Z,52.00
2019-04-16T13:13:01.837Z,50.40
2019-04-16T13:14:19.332Z,50.40
2019-04-16T13:15:36.611Z,50.40
2019-04-16T13:16:47.693Z,50.00
2019-04-16T13:18:08.058Z,50.60
2019-04-16T13:19:31.458Z,50.00
2019-04-16T13:20:57.361Z,49.20
2019-04-16T13:22:00.891Z,47.90
2019-04-16T13:23:22.263Z,48.20
2019-04-16T13:24:27.488Z,49.20
2019-04-16T13:25:48.691Z,48.40
2019-04-16T13:26:53.896Z,49.20
2019-04-16T13:27:57.484Z,50.00
2019-04-16T13:29:03.051Z,49.80
2019-04-16T13:30:10.951Z,49.20
2019-04-16T13:31:14.530Z,51.30
2019-04-16T13:32:18.112Z,50.10
2019-04-16T13:33:21.684Z,49.60
2019-04-16T13:34:25.295Z,49.40
2019-04-16T13:35:28.874Z,51.00
2019-04-16T13:36:32.447Z,51.90
2019-04-16T13:37:37.889Z,52.10
2019-04-16T13:38:42.967Z,49.30
2019-04-16T13:39:59.483Z,49.50
2019-04-16T13:41:02.700Z,49.30
2019-04-16T13:42:06.315Z,49.40
2019-04-16T13:43:11.530Z,48.20
2019-04-16T13:44:19.452Z,49.50
2019-04-16T13:45:27.263Z,50.10
2019-04-16T13:46:34.535Z,50.10
2019-04-16T13:47:37.898Z,49.70
2019-04-16T13:48:52.013Z,49.20
2019-04-16T13:50:02.692Z,49.80
2019-04-16T13:51:12.200Z,49.80
2019-04-16T13:52:12.268Z,49.60
2019-04-16T13:53:17.489Z,50.40
2019-04-16T13:54:34.009Z,51.80
2019-04-16T13:55:52.079Z,51.90
2019-04-16T13:56:57.344Z,50.70
2019-04-16T13:58:03.027Z,50.40
2019-04-16T13:59:14.372Z,52.20
2019-04-16T14:00:28.708Z,50.30
2019-04-16T14:01:39.359Z,49.10
2019-04-16T14:02:47.720Z,48.80
2019-04-16T14:03:56.134Z,49.40
2019-04-16T14:04:59.841Z,50.80
2019-04-16T14:06:02.230Z,49.90
2019-04-16T14:07:05.807Z,49.40
2019-04-16T14:08:09.395Z,49.70
2019-04-16T14:09:13.040Z,49.90
2019-04-16T14:10:16.830Z,48.40
2019-04-16T14:11:20.629Z,49.10
2019-04-16T14:12:40.845Z,48.80
2019-04-16T14:13:29.395Z,48.80
2019-04-16T14:14:32.987Z,49.00
2019-04-16T14:15:40.319Z,49.70
2019-04-16T14:16:43.789Z,48.40
2019-04-16T14:17:52.977Z,48.60
2019-04-16T14:18:52.527Z,46.80
2019-04-16T14:19:56.141Z,47.50
2019-04-16T14:20:59.712Z,47.20
2019-04-16T14:22:03.287Z,49.00
2019-04-16T14:23:07.148Z,48.80
2019-04-16T14:24:12.540Z,49.10